createdAt,value
2018-04-13T00:01:35.279Z,5.13
2018-04-13T00:04:02.115Z,5.07
2018-04-13T00:06:28.938Z,5.17
2018-04-13T00:08:55.794Z,4.43
2018-04-13T00:11:22.639Z,4.70
2018-04-13T00:13:49.472Z,4.43
2018-04-13T00:16:16.421Z,5.23
2018-04-13T00:18:43.296Z,4.90
2018-04-13T00:21:10.217Z,5.20
2018-04-13T00:23:37.152Z,4.93
2018-04-13T00:26:04.035Z,5.00
2018-04-13T00:28:30.859Z,6.17
2018-04-13T00:30:57.733Z,5.97
2018-04-13T00:33:24.578Z,5.43
2018-04-13T00:35:51.478Z,6.27
2018-04-13T00:38:18.393Z,5.50
2018-04-13T00:40:45.261Z,5.73
2018-04-13T00:43:12.137Z,6.10
2018-04-13T00:45:39.010Z,5.80
2018-04-13T00:48:05.881Z,6.40
2018-04-13T00:50:32.747Z,6.30
2018-04-13T00:53:05.461Z,6.50
2018-04-13T00:55:32.392Z,6.63
2018-04-13T00:57:59.257Z,7.07
2018-04-13T01:00:26.079Z,6.97
2018-04-13T01:02:52.958Z,7.00
2018-04-13T01:05:19.808Z,6.90
2018-04-13T01:07:46.650Z,7.73
2018-04-13T01:10:13.547Z,7.57
2018-04-13T01:12:40.421Z,7.07
2018-04-13T01:15:07.357Z,7.33
2018-04-13T01:17:34.205Z,6.60
2018-04-13T01:20:01.089Z,6.83
2018-04-13T01:22:27.965Z,7.30
2018-04-13T01:24:54.844Z,7.63
2018-04-13T01:27:21.719Z,8.33
2018-04-13T01:29:48.630Z,7.37
2018-04-13T01:32:15.494Z,7.93
2018-04-13T01:34:42.342Z,7.63
2018-04-13T01:37:09.271Z,7.77
2018-04-13T01:39:36.198Z,8.60
2018-04-13T01:42:03.050Z,8.00
2018-04-13T01:44:30.027Z,8.57
2018-04-13T01:46:57.034Z,8.40
2018-04-13T01:49:23.890Z,9.03
2018-04-13T01:51:50.822Z,9.70
2018-04-13T01:54:17.765Z,9.53
2018-04-13T01:56:44.698Z,9.27
2018-04-13T01:59:11.651Z,10.63
2018-04-13T02:01:38.612Z,9.47
2018-04-13T02:04:05.467Z,10.13
2018-04-13T02:06:32.355Z,9.10
2018-04-13T02:08:59.306Z,9.87
2018-04-13T02:11:26.264Z,9.73
2018-04-13T02:13:53.163Z,10.53
2018-04-13T02:16:20.035Z,11.00
2018-04-13T02:18:46.952Z,9.50
2018-04-13T02:21:13.885Z,11.57
2018-04-13T02:23:40.728Z,11.33
2018-04-13T02:26:07.644Z,10.80
2018-04-13T02:28:34.601Z,11.00
2018-04-13T02:31:01.513Z,12.10
2018-04-13T02:33:28.417Z,11.03
2018-04-13T02:35:55.349Z,11.57
2018-04-13T02:38:22.350Z,11.47
2018-04-13T02:40:49.243Z,12.50
2018-04-13T02:43:16.082Z,13.63
2018-04-13T02:45:42.897Z,13.30
2018-04-13T02:48:09.839Z,14.43
2018-04-13T02:50:36.721Z,14.53
2018-04-13T02:53:03.582Z,15.90
2018-04-13T02:55:30.396Z,13.90
2018-04-13T02:57:57.312Z,16.00
2018-04-13T03:00:24.216Z,15.33
2018-04-13T03:02:51.103Z,14.87
2018-04-13T03:05:17.903Z,14.80
2018-04-13T03:07:44.753Z,14.97
2018-04-13T03:10:11.678Z,14.83
2018-04-13T03:12:38.618Z,16.20
2018-04-13T03:15:05.538Z,15.77
2018-04-13T03:17:32.425Z,15.17
2018-04-13T03:19:59.352Z,15.13
2018-04-13T03:22:26.245Z,15.43
2018-04-13T03:24:53.115Z,15.30
2018-04-13T03:27:20.181Z,15.27
2018-04-13T03:29:47.028Z,15.80
2018-04-13T03:32:13.880Z,14.87
2018-04-13T03:34:40.809Z,15.57
2018-04-13T03:37:07.660Z,14.87
2018-04-13T03:39:34.538Z,14.43
2018-04-13T03:42:01.498Z,15.63
2018-04-13T03:44:28.500Z,14.87
2018-04-13T03:46:55.461Z,15.90
2018-04-13T03:49:22.421Z,15.20
2018-04-13T03:51:49.265Z,14.97
2018-04-13T03:54:16.257Z,15.63
2018-04-13T03:56:43.117Z,16.50
2018-04-13T03:59:09.997Z,15.80
2018-04-13T04:01:36.869Z,16.23
2018-04-13T04:04:03.710Z,16.47
2018-04-13T04:06:30.613Z,15.00
2018-04-13T04:08:57.518Z,14.57
2018-04-13T04:11:24.461Z,15.30
2018-04-13T04:13:51.357Z,14.40
2018-04-13T04:16:18.290Z,14.30
2018-04-13T04:18:45.139Z,14.57
2018-04-13T04:21:17.734Z,14.93
2018-04-13T04:24:02.494Z,15.23
2018-04-13T04:26:35.172Z,14.07
2018-04-13T04:29:01.982Z,14.37
2018-04-13T04:31:28.885Z,13.33
2018-04-13T04:33:55.780Z,13.80
2018-04-13T04:36:22.706Z,15.50
2018-04-13T04:38:49.580Z,14.00
2018-04-13T04:41:16.444Z,15.20
2018-04-13T04:43:43.355Z,15.80
2018-04-13T04:46:10.202Z,17.33
2018-04-13T04:48:37.027Z,17.83
2018-04-13T04:51:03.912Z,18.53
2018-04-13T04:53:30.774Z,22.63
2018-04-13T04:55:57.676Z,21.50
2018-04-13T04:58:24.596Z,22.40
2018-04-13T05:00:51.506Z,22.67
2018-04-13T05:03:18.558Z,23.27
2018-04-13T05:05:45.391Z,23.10
2018-04-13T05:08:12.283Z,24.27
2018-04-13T05:10:39.173Z,24.57
2018-04-13T05:13:06.070Z,24.33
2018-04-13T05:15:32.984Z,23.97
2018-04-13T05:17:59.916Z,25.20
2018-04-13T05:20:26.808Z,24.67
2018-04-13T05:22:53.651Z,22.73
2018-04-13T05:25:20.522Z,23.43
2018-04-13T05:27:47.445Z,20.93
2018-04-13T05:30:15.767Z,21.00
2018-04-13T05:32:42.586Z,21.10
2018-04-13T05:35:09.537Z,20.70
2018-04-13T05:37:36.358Z,21.70
2018-04-13T05:40:03.225Z,21.30
2018-04-13T05:42:30.118Z,20.53
2018-04-13T05:44:57.163Z,19.70
2018-04-13T05:47:24.169Z,21.27
2018-04-13T05:49:51.054Z,20.57
2018-04-13T05:52:17.951Z,17.43
2018-04-13T05:54:44.906Z,17.90
2018-04-13T05:57:11.800Z,17.17
2018-04-13T05:59:38.650Z,16.93
2018-04-13T06:02:05.521Z,16.97
2018-04-13T06:04:32.427Z,15.23
2018-04-13T06:06:59.381Z,15.60
2018-04-13T06:09:26.271Z,16.37
2018-04-13T06:11:53.235Z,16.53
2018-04-13T06:14:20.114Z,15.33
2018-04-13T06:16:47.150Z,15.17
2018-04-13T06:19:14.047Z,13.57
2018-04-13T06:21:40.983Z,11.67
2018-04-13T06:24:07.854Z,11.57
2018-04-13T06:26:34.740Z,9.70
2018-04-13T06:29:01.787Z,9.73
2018-04-13T06:31:28.646Z,8.83
2018-04-13T06:33:55.525Z,8.67
2018-04-13T06:36:22.415Z,9.13
2018-04-13T06:38:49.348Z,9.73
2018-04-13T06:41:16.270Z,9.67
2018-04-13T06:43:43.201Z,8.63
2018-04-13T06:46:10.101Z,9.27
2018-04-13T06:48:36.983Z,9.93
2018-04-13T06:51:03.847Z,8.53
2018-04-13T06:53:30.719Z,9.10
2018-04-13T06:55:57.578Z,9.77
2018-04-13T06:58:24.442Z,8.23
2018-04-13T07:00:51.361Z,8.20
2018-04-13T07:03:18.260Z,8.03
2018-04-13T07:05:47.347Z,7.87
2018-04-13T07:49:14.666Z,3.83
2018-04-13T07:51:42.476Z,4.00
